createdAt,value
2018-01-24T00:00:37.434Z,15.27
2018-01-24T00:03:04.874Z,15.90
2018-01-24T00:05:32.290Z,17.47
2018-01-24T00:07:59.673Z,16.83
2018-01-24T00:10:27.070Z,16.80
2018-01-24T00:12:54.499Z,18.23
2018-01-24T00:15:21.902Z,17.60
2018-01-24T00:17:49.298Z,18.10
2018-01-24T00:20:16.707Z,18.67
2018-01-24T00:22:44.112Z,17.30
2018-01-24T00:25:11.506Z,18.37
2018-01-24T00:27:38.907Z,18.20
2018-01-24T00:30:06.323Z,18.63
2018-01-24T00:32:33.729Z,18.23
2018-01-24T00:35:01.123Z,18.83
2018-01-24T00:37:28.528Z,19.73
2018-01-24T00:39:55.954Z,19.67
2018-01-24T00:42:23.346Z,20.17
2018-01-24T00:44:50.751Z,20.33
2018-01-24T00:47:18.161Z,18.00
2018-01-24T00:49:45.565Z,19.13
2018-01-24T00:52:12.960Z,18.23
2018-01-24T00:54:40.371Z,20.83
2018-01-24T00:57:07.780Z,18.63
2018-01-24T00:59:35.187Z,19.57
2018-01-24T01:02:02.610Z,17.57
2018-01-24T01:04:30.023Z,16.60
2018-01-24T01:06:57.414Z,15.73
2018-01-24T01:09:24.881Z,16.43
2018-01-24T01:11:52.297Z,15.37
2018-01-24T01:14:19.683Z,15.83
2018-01-24T01:16:47.088Z,14.07
2018-01-24T01:19:14.488Z,15.07
2018-01-24T01:21:41.955Z,14.57
2018-01-24T01:24:09.341Z,15.07
2018-01-24T01:26:36.769Z,14.73
2018-01-24T01:29:04.158Z,13.53
2018-01-24T01:31:31.566Z,14.37
2018-01-24T01:33:58.962Z,14.20
2018-01-24T01:36:26.367Z,14.27
2018-01-24T01:38:53.758Z,13.23
2018-01-24T01:41:21.186Z,15.40
2018-01-24T01:43:48.586Z,14.30
2018-01-24T01:46:15.998Z,15.50
2018-01-24T01:48:43.395Z,14.90
2018-01-24T01:51:10.805Z,14.80
2018-01-24T01:53:38.202Z,15.40
2018-01-24T01:56:05.601Z,14.80
2018-01-24T01:58:33.010Z,15.20
2018-01-24T02:01:00.418Z,14.23
2018-01-24T02:03:27.823Z,14.77
2018-01-24T02:05:55.217Z,15.00
2018-01-24T02:08:22.635Z,15.50
2018-01-24T02:10:50.026Z,15.97
2018-01-24T02:13:17.425Z,15.43
2018-01-24T02:15:44.842Z,15.20
2018-01-24T02:18:12.275Z,16.40
2018-01-24T02:20:39.684Z,15.63
2018-01-24T02:23:07.090Z,15.87
2018-01-24T02:25:34.497Z,15.00
2018-01-24T02:28:01.903Z,16.73
2018-01-24T02:30:29.394Z,17.20
2018-01-24T02:32:56.812Z,17.37
2018-01-24T02:35:24.372Z,17.40
2018-01-24T02:37:51.788Z,18.40
2018-01-24T02:40:19.198Z,18.23
2018-01-24T02:42:46.610Z,17.03
2018-01-24T02:45:14.015Z,17.03
2018-01-24T02:47:41.419Z,20.57
2018-01-24T02:50:08.830Z,19.43
2018-01-24T02:52:36.231Z,20.00
2018-01-24T02:55:03.643Z,19.77
2018-01-24T02:57:31.042Z,18.90
2018-01-24T02:59:58.449Z,20.63
2018-01-24T03:02:25.850Z,19.20
2018-01-24T03:04:53.257Z,20.00
2018-01-24T03:07:20.658Z,19.77
2018-01-24T03:09:48.071Z,18.67
2018-01-24T03:12:15.476Z,21.00
2018-01-24T03:14:42.884Z,18.63
2018-01-24T03:17:10.290Z,18.50
2018-01-24T03:19:37.703Z,18.70
2018-01-24T03:22:05.094Z,18.90
2018-01-24T03:24:32.498Z,20.00
2018-01-24T03:26:59.895Z,17.70
2018-01-24T03:29:27.306Z,18.80
2018-01-24T03:31:54.723Z,18.73
2018-01-24T03:34:22.122Z,17.73
2018-01-24T03:36:49.551Z,16.63
2018-01-24T03:39:16.986Z,19.20
2018-01-24T03:41:44.398Z,17.87
2018-01-24T03:44:11.800Z,19.13
2018-01-24T03:46:39.202Z,18.70
2018-01-24T03:49:06.682Z,19.13
2018-01-24T03:51:34.082Z,18.57
2018-01-24T03:54:01.487Z,18.60
2018-01-24T03:56:28.905Z,17.20
2018-01-24T03:58:56.399Z,17.77
2018-01-24T04:01:23.858Z,16.00
2018-01-24T04:03:51.261Z,18.33
2018-01-24T04:06:18.672Z,17.37
2018-01-24T04:08:46.074Z,18.10
2018-01-24T04:11:13.470Z,18.77
2018-01-24T04:13:40.939Z,18.63
2018-01-24T04:16:08.362Z,16.50
2018-01-24T04:18:35.831Z,17.80
2018-01-24T04:21:03.258Z,16.93
2018-01-24T04:23:30.693Z,18.10
2018-01-24T04:25:58.114Z,17.97
2018-01-24T04:28:25.543Z,19.27
2018-01-24T04:30:53.026Z,18.33
2018-01-24T04:33:20.435Z,18.73
2018-01-24T04:35:47.842Z,17.07
2018-01-24T04:38:15.250Z,18.67
2018-01-24T04:40:42.641Z,19.77
2018-01-24T04:43:10.067Z,19.80
2018-01-24T04:45:37.568Z,18.73
2018-01-24T04:48:04.974Z,17.93
2018-01-24T04:50:32.488Z,19.20
2018-01-24T04:52:59.881Z,18.83
2018-01-24T04:55:27.292Z,18.90
2018-01-24T04:57:54.699Z,20.03
2018-01-24T05:00:22.115Z,20.33
2018-01-24T05:02:49.560Z,18.57
2018-01-24T05:05:16.972Z,17.97
2018-01-24T05:07:44.515Z,18.60
2018-01-24T05:10:11.925Z,19.37
2018-01-24T05:12:39.331Z,19.10
2018-01-24T05:15:06.735Z,19.57
2018-01-24T05:17:34.139Z,18.97
2018-01-24T05:20:01.547Z,18.00
2018-01-24T05:22:28.952Z,20.23
2018-01-24T05:24:56.429Z,19.20
2018-01-24T05:27:23.842Z,20.13
2018-01-24T05:29:51.250Z,20.60
2018-01-24T05:32:18.645Z,21.60
2018-01-24T05:34:46.059Z,21.33
2018-01-24T05:37:13.454Z,22.30
2018-01-24T05:39:40.870Z,19.77
2018-01-24T05:42:08.303Z,21.77
2018-01-24T05:44:35.705Z,21.77
2018-01-24T05:47:03.170Z,21.20
2018-01-24T05:49:30.571Z,22.73
2018-01-24T05:51:58.007Z,22.17
2018-01-24T05:54:25.453Z,22.63
2018-01-24T05:56:52.864Z,21.83
2018-01-24T05:59:20.258Z,21.47
2018-01-24T06:01:47.700Z,22.53
2018-01-24T06:04:15.090Z,22.07
2018-01-24T06:06:42.521Z,21.93
2018-01-24T06:09:09.922Z,22.83
2018-01-24T06:11:37.330Z,23.73
2018-01-24T06:14:04.744Z,22.90
2018-01-24T06:16:32.146Z,23.20
2018-01-24T06:18:59.566Z,23.17
2018-01-24T06:21:26.974Z,22.27
2018-01-24T06:23:54.374Z,24.17
2018-01-24T06:26:21.774Z,23.90
2018-01-24T06:28:49.994Z,23.37
2018-01-24T06:31:17.397Z,24.30
2018-01-24T06:33:44.797Z,22.30
2018-01-24T06:36:12.199Z,20.70
2018-01-24T06:38:39.603Z,21.43
2018-01-24T06:41:07.006Z,22.83
2018-01-24T06:43:34.414Z,23.57
2018-01-24T06:46:01.811Z,23.20
2018-01-24T06:48:29.218Z,23.00
2018-01-24T06:50:56.686Z,22.60
2018-01-24T06:53:24.092Z,22.83
2018-01-24T06:55:51.495Z,24.53
2018-01-24T06:58:18.903Z,24.33
2018-01-24T07:00:46.346Z,25.33
2018-01-24T07:03:13.721Z,25.47
2018-01-24T07:05:41.193Z,26.10
2018-01-24T07:08:09.565Z,24.87
2018-01-24T07:10:36.975Z,24.37
2018-01-24T07:13:16.290Z,24.10
2018-01-24T07:15:43.697Z,24.10
2018-01-24T07:18:11.142Z,26.30
2018-01-24T07:20:39.446Z,24.83
2018-01-24T07:23:06.879Z,24.13
2018-01-24T07:25:34.310Z,25.90
2018-01-24T07:28:01.712Z,24.80
2018-01-24T07:30:29.117Z,25.27
2018-01-24T07:32:56.531Z,24.57
2018-01-24T07:35:23.992Z,23.40
2018-01-24T07:37:51.425Z,25.00
2018-01-24T07:40:18.819Z,24.20
2018-01-24T07:42:46.258Z,23.60
2018-01-24T07:45:13.663Z,23.13
2018-01-24T07:47:41.167Z,23.00
2018-01-24T07:50:08.594Z,22.60
2018-01-24T07:52:36.012Z,21.17
2018-01-24T07:55:03.421Z,20.70
2018-01-24T07:57:30.829Z,19.90
2018-01-24T07:59:58.247Z,18.40
2018-01-24T08:02:26.587Z,18.30
2018-01-24T08:04:53.991Z,17.70
2018-01-24T08:07:21.394Z,17.40
2018-01-24T08:09:48.794Z,17.10
2018-01-24T08:12:16.203Z,17.80
2018-01-24T08:14:43.620Z,16.20
2018-01-24T08:17:11.026Z,13.90
2018-01-24T08:19:38.488Z,14.10
2018-01-24T08:22:05.935Z,13.17
2018-01-24T08:24:33.343Z,13.57
2018-01-24T08:27:00.793Z,12.00
2018-01-24T08:29:28.190Z,12.80
2018-01-24T08:31:55.608Z,12.97
2018-01-24T08:34:23.002Z,11.73
2018-01-24T08:36:50.429Z,13.13
2018-01-24T08:39:17.848Z,11.40
2018-01-24T08:41:45.302Z,11.80
2018-01-24T08:44:12.699Z,11.80
2018-01-24T08:46:40.090Z,11.03
2018-01-24T08:49:07.549Z,12.20
2018-01-24T08:51:34.975Z,10.83
2018-01-24T08:54:02.492Z,10.73
2018-01-24T08:56:29.887Z,12.50
2018-01-24T08:58:57.332Z,11.67
2018-01-24T09:01:42.291Z,10.87
2018-01-24T09:04:27.290Z,10.70
2018-01-24T09:07:12.322Z,9.10
2018-01-24T09:09:57.326Z,9.07
2018-01-24T09:12:42.383Z,9.53
2018-01-24T09:15:27.435Z,9.90
2018-01-24T09:18:12.419Z,8.60
2018-01-24T09:20:57.295Z,9.83
2018-01-24T09:23:40.015Z,9.00
2018-01-24T09:26:07.425Z,7.73
2018-01-24T09:28:34.838Z,8.27
2018-01-24T09:31:02.242Z,6.73
2018-01-24T09:33:29.635Z,6.87
2018-01-24T09:35:57.043Z,6.40
2018-01-24T09:38:24.429Z,6.10
2018-01-24T09:40:51.851Z,5.40
2018-01-24T09:43:19.237Z,5.37
2018-01-24T09:45:46.635Z,5.57
2018-01-24T09:48:14.041Z,4.90
2018-01-24T09:50:41.441Z,4.70
2018-01-24T09:53:08.830Z,4.60
2018-01-24T09:55:36.227Z,4.60
2018-01-24T09:58:03.634Z,4.57
2018-01-24T10:00:31.038Z,3.83
2018-01-24T10:02:58.430Z,3.50
2018-01-24T10:05:25.834Z,3.30
2018-01-24T10:07:53.229Z,3.17
2018-01-24T10:10:20.619Z,3.30
2018-01-24T10:12:48.018Z,3.70
2018-01-24T10:15:15.394Z,3.27
2018-01-24T10:17:42.804Z,2.60
2018-01-24T10:20:10.215Z,2.50
2018-01-24T10:22:37.602Z,2.70
2018-01-24T10:25:05.028Z,2.50
2018-01-24T10:27:32.425Z,1.90
2018-01-24T10:29:59.810Z,2.40
2018-01-24T10:32:27.214Z,1.93
2018-01-24T10:34:54.611Z,1.70
2018-01-24T10:37:22.021Z,1.50
2018-01-24T10:39:49.406Z,1.40
2018-01-24T10:42:16.811Z,1.50
2018-01-24T10:44:44.194Z,1.47
2018-01-24T10:47:11.604Z,1.03
2018-01-24T10:49:38.978Z,1.40
2018-01-24T10:52:06.378Z,1.20
2018-01-24T10:54:33.775Z,1.33
2018-01-24T10:57:01.198Z,1.20
2018-01-24T10:59:28.618Z,1.17
2018-01-24T11:01:56.018Z,1.10
2018-01-24T11:04:23.406Z,1.27
2018-01-24T11:06:50.919Z,0.90
2018-01-24T11:09:18.346Z,0.90
2018-01-24T11:11:45.773Z,0.90
2018-01-24T11:14:13.158Z,0.90
2018-01-24T11:16:40.554Z,0.83
2018-01-24T11:19:07.954Z,0.80
2018-01-24T11:21:35.373Z,1.00
2018-01-24T11:24:02.758Z,0.60
2018-01-24T11:26:30.181Z,0.70
2018-01-24T11:28:57.593Z,0.73
2018-01-24T11:31:24.994Z,0.80
2018-01-24T11:33:52.390Z,0.60
2018-01-24T11:36:19.791Z,0.60
2018-01-24T11:38:47.184Z,0.73
2018-01-24T11:41:14.582Z,0.80
2018-01-24T11:43:41.991Z,0.70
2018-01-24T11:46:09.378Z,0.80
2018-01-24T11:48:36.762Z,0.70
2018-01-24T11:51:04.184Z,0.70
2018-01-24T11:53:31.568Z,0.70
2018-01-24T11:55:58.973Z,0.70
2018-01-24T11:58:26.378Z,0.80
2018-01-24T12:00:53.761Z,0.70
2018-01-24T12:03:21.182Z,1.20
2018-01-24T12:05:48.570Z,0.97
2018-01-24T12:08:15.980Z,0.70
2018-01-24T12:10:43.375Z,0.90
2018-01-24T12:13:10.770Z,0.70
2018-01-24T12:15:38.167Z,1.00
2018-01-24T12:18:05.581Z,0.80
2018-01-24T12:20:32.961Z,0.70
2018-01-24T12:23:00.383Z,0.70
2018-01-24T12:25:27.794Z,0.80
2018-01-24T12:27:55.194Z,0.90
2018-01-24T12:30:22.668Z,0.80
2018-01-24T12:32:50.081Z,0.80
2018-01-24T12:35:17.490Z,0.80
2018-01-24T12:37:44.904Z,0.80
2018-01-24T12:40:12.289Z,0.60
2018-01-24T12:42:39.687Z,0.90
2018-01-24T12:45:07.075Z,0.70
2018-01-24T12:47:34.499Z,0.87
2018-01-24T12:50:01.993Z,0.67
2018-01-24T12:52:29.390Z,0.60
2018-01-24T12:54:56.787Z,0.60
2018-01-24T12:57:24.193Z,1.00
2018-01-24T12:59:51.590Z,1.00
2018-01-24T13:02:19.010Z,0.60
2018-01-24T13:04:46.395Z,0.90
2018-01-24T13:07:13.790Z,0.60
2018-01-24T13:09:41.205Z,0.60
2018-01-24T13:12:08.617Z,0.67
2018-01-24T13:14:36.014Z,0.70
2018-01-24T13:17:03.429Z,0.80
2018-01-24T13:19:30.830Z,0.60
2018-01-24T13:21:58.232Z,0.70
2018-01-24T13:24:25.702Z,0.73
2018-01-24T13:26:53.098Z,0.70
2018-01-24T13:29:20.498Z,1.10
2018-01-24T13:31:47.899Z,0.70
2018-01-24T13:34:15.392Z,0.73
2018-01-24T13:36:42.863Z,0.60
2018-01-24T13:39:10.261Z,0.60
2018-01-24T13:41:37.662Z,0.80
2018-01-24T13:44:05.051Z,0.70
2018-01-24T13:46:32.466Z,0.70
2018-01-24T13:48:59.871Z,0.60
2018-01-24T13:51:27.330Z,0.80
2018-01-24T13:53:54.844Z,0.93
2018-01-24T13:56:22.233Z,0.80
2018-01-24T13:58:49.634Z,0.80
2018-01-24T14:01:17.027Z,1.03
2018-01-24T14:03:44.431Z,0.70
2018-01-24T14:06:11.836Z,0.80
2018-01-24T14:08:39.235Z,0.70
2018-01-24T14:11:06.636Z,0.70
2018-01-24T14:13:34.014Z,0.70
2018-01-24T14:16:01.421Z,0.70
2018-01-24T14:18:28.806Z,0.90
2018-01-24T14:20:56.244Z,0.77
2018-01-24T14:23:23.660Z,0.70
2018-01-24T14:25:51.074Z,0.80
2018-01-24T14:28:18.473Z,0.70
2018-01-24T14:30:45.895Z,0.90
2018-01-24T14:33:13.288Z,0.90
2018-01-24T14:35:40.785Z,0.90
2018-01-24T14:38:08.191Z,0.90
2018-01-24T14:40:35.616Z,0.90
2018-01-24T14:43:02.995Z,0.70
2018-01-24T14:45:30.393Z,1.03
2018-01-24T14:47:57.778Z,0.80
2018-01-24T14:50:25.189Z,0.90
2018-01-24T14:52:52.585Z,0.80
2018-01-24T14:55:19.982Z,0.77
2018-01-24T14:57:47.381Z,0.70
2018-01-24T15:00:14.779Z,0.80
2018-01-24T15:02:42.170Z,0.77
2018-01-24T15:05:09.566Z,0.90
2018-01-24T15:07:37.005Z,0.97
2018-01-24T15:10:04.368Z,0.80
2018-01-24T15:12:31.759Z,0.63
2018-01-24T15:14:59.162Z,0.80
2018-01-24T15:17:26.594Z,0.70
2018-01-24T15:19:53.942Z,0.90
2018-01-24T15:22:21.337Z,1.00
2018-01-24T15:24:48.727Z,0.70
2018-01-24T15:27:16.120Z,0.73
2018-01-24T15:29:43.519Z,0.70
2018-01-24T15:32:10.922Z,0.70
2018-01-24T15:34:38.326Z,0.80
2018-01-24T15:37:05.723Z,0.90
2018-01-24T15:39:33.118Z,0.60
2018-01-24T15:42:00.585Z,0.83
2018-01-24T15:44:27.979Z,0.80
2018-01-24T15:46:55.398Z,0.80
2018-01-24T15:49:22.782Z,0.80
2018-01-24T15:51:50.167Z,0.80
2018-01-24T15:54:17.650Z,0.70
2018-01-24T15:56:45.114Z,0.70
2018-01-24T15:59:12.525Z,0.70
2018-01-24T16:01:39.932Z,0.60
2018-01-24T16:04:07.331Z,0.50
2018-01-24T16:06:34.763Z,0.70
2018-01-24T16:09:02.128Z,0.60
2018-01-24T16:11:29.514Z,0.63
2018-01-24T16:13:56.914Z,0.80
2018-01-24T16:16:24.305Z,0.60
2018-01-24T16:18:51.707Z,0.60
2018-01-24T16:21:19.085Z,0.70
2018-01-24T16:23:46.501Z,0.80
2018-01-24T16:26:13.892Z,0.60
2018-01-24T16:28:41.282Z,0.80
2018-01-24T16:31:08.684Z,0.87
2018-01-24T16:33:36.108Z,0.93
2018-01-24T16:36:03.491Z,0.80
2018-01-24T16:38:30.923Z,1.60
2018-01-24T16:40:58.335Z,1.73
2018-01-24T16:43:25.736Z,0.80
2018-01-24T16:45:53.122Z,1.00
2018-01-24T16:48:20.521Z,0.80
2018-01-24T16:50:47.916Z,1.07
2018-01-24T16:53:15.360Z,1.03
2018-01-24T16:55:42.742Z,1.40
2018-01-24T16:58:10.150Z,1.77
2018-01-24T17:00:37.550Z,1.30
2018-01-24T17:03:04.943Z,1.17
2018-01-24T17:05:32.346Z,1.00
2018-01-24T17:07:59.733Z,0.90
2018-01-24T17:10:27.138Z,1.30
2018-01-24T17:12:54.519Z,2.03
2018-01-24T17:15:21.996Z,1.10
2018-01-24T17:17:49.393Z,0.90
2018-01-24T17:20:16.778Z,0.93
2018-01-24T17:22:44.191Z,1.20
2018-01-24T17:25:11.586Z,1.10
2018-01-24T17:27:38.978Z,0.97
2018-01-24T17:30:06.373Z,0.93
2018-01-24T17:32:33.782Z,0.90
2018-01-24T17:35:01.163Z,0.97
2018-01-24T17:37:28.649Z,0.87
2018-01-24T17:39:56.069Z,0.87
2018-01-24T17:42:23.558Z,1.00
2018-01-24T17:44:50.963Z,0.80
2018-01-24T17:47:18.360Z,0.80
2018-01-24T17:49:46.065Z,0.97
2018-01-24T17:52:13.434Z,1.00
2018-01-24T17:54:40.857Z,0.77
2018-01-24T17:57:08.266Z,1.00
2018-01-24T17:59:35.674Z,3.30
2018-01-24T18:02:03.120Z,2.90
2018-01-24T18:04:30.523Z,1.20
2018-01-24T18:06:57.914Z,1.00
2018-01-24T18:09:25.305Z,0.93
2018-01-24T18:11:52.724Z,0.90
2018-01-24T18:14:20.130Z,1.10
2018-01-24T18:16:47.535Z,1.20
2018-01-24T18:19:15.014Z,1.00
2018-01-24T18:21:42.412Z,1.10
2018-01-24T18:24:09.823Z,0.90
2018-01-24T18:26:37.222Z,1.70
2018-01-24T18:29:04.634Z,1.30
2018-01-24T18:31:32.023Z,1.27
2018-01-24T18:33:59.416Z,1.77
2018-01-24T18:36:26.810Z,1.27
2018-01-24T18:38:54.214Z,1.30
2018-01-24T18:41:21.599Z,1.57
2018-01-24T18:43:48.997Z,1.47
2018-01-24T18:46:16.385Z,1.60
2018-01-24T18:48:43.818Z,1.23
2018-01-24T18:51:11.217Z,1.27
2018-01-24T18:53:38.603Z,1.30
2018-01-24T18:56:06.017Z,1.40
2018-01-24T18:58:33.395Z,1.20
2018-01-24T19:01:00.799Z,1.00
2018-01-24T19:03:28.204Z,1.13
2018-01-24T19:05:55.588Z,1.20
2018-01-24T19:08:23.096Z,1.00
2018-01-24T19:10:50.507Z,2.73
2018-01-24T19:13:17.893Z,1.50
2018-01-24T19:15:45.368Z,1.20
2018-01-24T19:18:12.854Z,1.30
2018-01-24T19:20:40.281Z,1.37
2018-01-24T19:23:07.661Z,2.17
2018-01-24T19:25:35.074Z,1.57
2018-01-24T19:28:02.468Z,1.03
2018-01-24T19:30:29.866Z,0.90
2018-01-24T19:32:57.258Z,0.97
2018-01-24T19:35:24.711Z,1.10
2018-01-24T19:37:52.115Z,0.80
2018-01-24T19:40:19.489Z,1.57
2018-01-24T19:42:46.891Z,0.80
2018-01-24T19:45:14.304Z,1.00
2018-01-24T19:47:41.698Z,0.87
2018-01-24T19:50:09.106Z,0.90
2018-01-24T19:52:36.519Z,1.00
2018-01-24T19:55:03.918Z,0.70
2018-01-24T19:57:31.317Z,0.80
2018-01-24T19:59:58.710Z,0.90
2018-01-24T20:02:26.129Z,0.70
2018-01-24T20:04:53.639Z,1.10
2018-01-24T20:07:21.184Z,0.90
2018-01-24T20:09:48.688Z,1.20
2018-01-24T20:12:16.086Z,1.10
2018-01-24T20:14:44.447Z,1.10
2018-01-24T20:17:11.895Z,0.90
2018-01-24T20:19:39.368Z,1.20
2018-01-24T20:22:06.876Z,0.90
2018-01-24T20:24:34.279Z,0.90
2018-01-24T20:27:01.722Z,0.97
2018-01-24T20:29:29.171Z,0.80
2018-01-24T20:31:57.507Z,1.00
2018-01-24T20:34:24.903Z,0.90
2018-01-24T20:36:52.508Z,1.30
2018-01-24T20:39:19.887Z,0.80
2018-01-24T20:41:47.303Z,1.20
2018-01-24T20:44:14.831Z,1.07
2018-01-24T20:46:42.353Z,1.10
2018-01-24T20:49:09.770Z,1.00
2018-01-24T20:51:37.153Z,0.90
2018-01-24T20:54:04.546Z,1.00
2018-01-24T20:56:31.960Z,1.20
2018-01-24T20:58:59.357Z,1.17
2018-01-24T21:01:26.750Z,0.97
2018-01-24T21:03:54.254Z,0.87
2018-01-24T21:06:21.658Z,1.20
2018-01-24T21:08:49.082Z,0.97
2018-01-24T21:11:16.495Z,1.07
2018-01-24T21:13:43.887Z,1.13
2018-01-24T21:16:11.296Z,1.20
2018-01-24T21:18:38.695Z,0.70
2018-01-24T21:21:06.110Z,0.70
2018-01-24T21:23:33.570Z,0.80
2018-01-24T21:26:01.074Z,0.70
2018-01-24T21:28:40.509Z,0.70
2018-01-24T21:31:19.903Z,0.77
2018-01-24T21:33:52.045Z,0.63
2018-01-24T21:36:31.483Z,0.80
2018-01-24T21:38:58.885Z,0.73
2018-01-24T21:41:26.278Z,1.00
2018-01-24T21:43:53.682Z,1.20
2018-01-24T21:46:21.095Z,0.70
2018-01-24T21:48:48.494Z,0.80
2018-01-24T21:51:15.902Z,1.00
2018-01-24T21:53:43.294Z,0.70
2018-01-24T21:56:10.694Z,0.80
2018-01-24T21:58:39.005Z,0.60
2018-01-24T22:01:06.442Z,0.73
2018-01-24T22:03:33.838Z,0.80
2018-01-24T22:06:01.325Z,0.90
2018-01-24T22:08:28.730Z,0.97
2018-01-24T22:10:56.138Z,1.00
2018-01-24T22:13:23.546Z,0.90
2018-01-24T22:15:51.033Z,0.83
2018-01-24T22:18:18.434Z,0.90
2018-01-24T22:20:45.854Z,1.20
2018-01-24T22:23:13.239Z,1.37
2018-01-24T22:25:40.664Z,0.83
2018-01-24T22:28:08.115Z,0.70
2018-01-24T22:30:35.574Z,0.87
2018-01-24T22:33:02.949Z,1.07
2018-01-24T22:35:30.346Z,0.87
2018-01-24T22:37:57.756Z,0.80
2018-01-24T22:40:25.180Z,0.90
2018-01-24T22:42:52.580Z,1.00
2018-01-24T22:45:19.978Z,0.83
2018-01-24T22:47:47.392Z,0.80
2018-01-24T22:50:14.786Z,1.10
2018-01-24T22:52:42.166Z,0.70
2018-01-24T22:55:09.554Z,0.90
2018-01-24T22:57:36.941Z,0.80
2018-01-24T23:00:04.346Z,0.90
2018-01-24T23:02:31.741Z,1.00
2018-01-24T23:04:59.133Z,0.90
2018-01-24T23:07:26.530Z,0.80
2018-01-24T23:09:53.940Z,0.97
2018-01-24T23:12:21.338Z,0.93
2018-01-24T23:14:48.729Z,1.00
2018-01-24T23:17:16.126Z,1.03
2018-01-24T23:19:43.546Z,1.20
2018-01-24T23:22:10.922Z,0.90
2018-01-24T23:24:38.325Z,0.97
2018-01-24T23:27:05.823Z,1.20
2018-01-24T23:29:33.214Z,1.07
2018-01-24T23:32:00.618Z,1.10
2018-01-24T23:34:28.036Z,1.00
2018-01-24T23:36:55.462Z,1.10
2018-01-24T23:39:22.866Z,1.20
2018-01-24T23:41:50.257Z,1.40
2018-01-24T23:44:18.610Z,1.20
2018-01-24T23:46:46.094Z,1.67
2018-01-24T23:49:13.490Z,1.60
2018-01-24T23:51:40.914Z,1.20
2018-01-24T23:54:08.297Z,1.27
2018-01-24T23:56:35.719Z,1.20
2018-01-24T23:59:03.132Z,1.20
